sensor_id;sensor_type;location;lat;lon;timestamp;temperature;humidity
736;DHT22;352;48.626;9.238;2023-01-09T00:01:32;8.70;99.90
736;DHT22;352;48.626;9.238;2023-01-09T00:04:00;8.80;99.90
736;DHT22;352;48.626;9.238;2023-01-09T00:06:27;8.80;99.90
736;DHT22;352;48.626;9.238;2023-01-09T00:08:53;8.80;99.90
736;DHT22;352;48.626;9.238;2023-01-09T00:11:20;8.90;99.90
736;DHT22;352;48.626;9.238;2023-01-09T00:13:47;8.90;99.90
736;DHT22;352;48.626;9.238;2023-01-09T00:16:16;8.80;99.90
736;DHT22;352;48.626;9.238;2023-01-09T00:18:42;8.90;99.90
736;DHT22;352;48.626;9.238;2023-01-09T00:21:11;8.90;99.90
736;DHT22;352;48.626;9.238;2023-01-09T00:23:38;8.90;99.90
736;DHT22;352;48.626;9.238;2023-01-09T00:26:06;8.90;99.90
736;DHT22;352;48.626;9.238;2023-01-09T00:28:33;8.90;99.90
736;DHT22;352;48.626;9.238;2023-01-09T00:31:01;8.90;99.90
736;DHT22;352;48.626;9.238;2023-01-09T00:33:32;9.00;99.90
736;DHT22;352;48.626;9.238;2023-01-09T00:35:59;9.00;99.90
736;DHT22;352;48.626;9.238;2023-01-09T00:38:26;9.00;99.90
736;DHT22;352;48.626;9.238;2023-01-09T00:40:54;9.00;99.90
736;DHT22;352;48.626;9.238;2023-01-09T00:43:24;9.00;99.90
736;DHT22;352;48.626;9.238;2023-01-09T00:45:52;9.00;99.90
736;DHT22;352;48.626;9.238;2023-01-09T00:48:20;9.00;99.90
736;DHT22;352;48.626;9.238;2023-01-09T00:50:53;9.10;99.90
736;DHT22;352;48.626;9.238;2023-01-09T00:53:22;9.10;99.90
736;DHT22;352;48.626;9.238;2023-01-09T00:55:51;9.10;99.90
736;DHT22;352;48.626;9.238;2023-01-09T00:58:18;9.10;99.90
736;DHT22;352;48.626;9.238;2023-01-09T01:00:45;9.10;99.90
736;DHT22;352;48.626;9.238;2023-01-09T01:03:12;9.20;99.90
736;DHT22;352;48.626;9.238;2023-01-09T01:05:38;9.20;99.90
736;DHT22;352;48.626;9.238;2023-01-09T01:08:24;9.20;99.90
736;DHT22;352;48.626;9.238;2023-01-09T01:10:50;9.20;99.90
736;DHT22;352;48.626;9.238;2023-01-09T01:13:17;9.30;99.90
736;DHT22;352;48.626;9.238;2023-01-09T01:15:45;9.30;99.90
736;DHT22;352;48.626;9.238;2023-01-09T01:18:13;9.30;99.90
736;DHT22;352;48.626;9.238;2023-01-09T01:20:40;9.30;99.90
736;DHT22;352;48.626;9.238;2023-01-09T01:23:08;9.30;99.90
736;DHT22;352;48.626;9.238;2023-01-09T01:25:37;9.40;99.90
736;DHT22;352;48.626;9.238;2023-01-09T01:28:04;9.40;99.90
736;DHT22;352;48.626;9.238;2023-01-09T01:30:31;9.40;99.90
736;DHT22;352;48.626;9.238;2023-01-09T01:32:58;9.40;99.90
736;DHT22;352;48.626;9.238;2023-01-09T01:35:25;9.40;99.90
736;DHT22;352;48.626;9.238;2023-01-09T01:37:52;9.40;99.90
736;DHT22;352;48.626;9.238;2023-01-09T01:40:19;9.40;99.90
736;DHT22;352;48.626;9.238;2023-01-09T01:42:49;9.50;99.90
736;DHT22;352;48.626;9.238;2023-01-09T01:45:18;9.40;99.90
736;DHT22;352;48.626;9.238;2023-01-09T01:47:49;9.40;99.90
736;DHT22;352;48.626;9.238;2023-01-09T01:50:23;9.40;99.90
736;DHT22;352;48.626;9.238;2023-01-09T01:53:02;9.50;99.90
736;DHT22;352;48.626;9.238;2023-01-09T01:55:33;9.40;99.90
736;DHT22;352;48.626;9.238;2023-01-09T01:58:04;9.40;99.90
736;DHT22;352;48.626;9.238;2023-01-09T02:00:35;9.40;99.90
736;DHT22;352;48.626;9.238;2023-01-09T02:03:04;9.40;99.90
736;DHT22;352;48.626;9.238;2023-01-09T02:05:32;9.40;99.90
736;DHT22;352;48.626;9.238;2023-01-09T02:07:59;9.40;99.90
736;DHT22;352;48.626;9.238;2023-01-09T02:10:26;9.40;99.90
736;DHT22;352;48.626;9.238;2023-01-09T02:12:53;9.40;99.90
736;DHT22;352;48.626;9.238;2023-01-09T02:15:21;9.40;99.90
736;DHT22;352;48.626;9.238;2023-01-09T02:18:22;9.40;99.90
736;DHT22;352;48.626;9.238;2023-01-09T02:20:55;9.40;99.90
736;DHT22;352;48.626;9.238;2023-01-09T02:27:05;9.40;99.90
736;DHT22;352;48.626;9.238;2023-01-09T02:32:43;9.40;99.90
736;DHT22;352;48.626;9.238;2023-01-09T02:35:25;9.40;99.90
736;DHT22;352;48.626;9.238;2023-01-09T02:38:08;9.40;99.90
736;DHT22;352;48.626;9.238;2023-01-09T02:40:40;9.40;99.90
736;DHT22;352;48.626;9.238;2023-01-09T02:43:09;9.40;99.90
736;DHT22;352;48.626;9.238;2023-01-09T02:45:37;9.40;99.90
736;DHT22;352;48.626;9.238;2023-01-09T02:48:07;9.40;99.90
736;DHT22;352;48.626;9.238;2023-01-09T02:50:40;9.40;99.90
736;DHT22;352;48.626;9.238;2023-01-09T02:53:53;9.40;99.90
736;DHT22;352;48.626;9.238;2023-01-09T02:56:34;9.40;99.90
736;DHT22;352;48.626;9.238;2023-01-09T02:59:15;9.40;99.90
736;DHT22;352;48.626;9.238;2023-01-09T03:02:00;9.40;99.90
736;DHT22;352;48.626;9.238;2023-01-09T03:04:41;9.40;99.90
736;DHT22;352;48.626;9.238;2023-01-09T03:07:13;9.40;99.90
736;DHT22;352;48.626;9.238;2023-01-09T03:09:47;9.40;99.90
736;DHT22;352;48.626;9.238;2023-01-09T03:12:20;9.40;99.90
736;DHT22;352;48.626;9.238;2023-01-09T03:14:51;9.30;99.90
736;DHT22;352;48.626;9.238;2023-01-09T03:17:21;9.40;99.90
736;DHT22;352;48.626;9.238;2023-01-09T03:19:51;9.30;99.90
736;DHT22;352;48.626;9.238;2023-01-09T03:22:19;9.30;99.90
736;DHT22;352;48.626;9.238;2023-01-09T03:24:46;9.30;99.90
736;DHT22;352;48.626;9.238;2023-01-09T03:27:13;9.30;99.90
736;DHT22;352;48.626;9.238;2023-01-09T03:29:39;9.30;99.90
736;DHT22;352;48.626;9.238;2023-01-09T03:32:06;9.30;99.90
736;DHT22;352;48.626;9.238;2023-01-09T03:34:33;9.30;99.90
736;DHT22;352;48.626;9.238;2023-01-09T03:37:01;9.30;99.90
736;DHT22;352;48.626;9.238;2023-01-09T03:39:29;9.30;99.90
736;DHT22;352;48.626;9.238;2023-01-09T03:41:56;9.30;99.90
736;DHT22;352;48.626;9.238;2023-01-09T03:44:23;9.30;99.90
736;DHT22;352;48.626;9.238;2023-01-09T03:46:49;9.40;99.90
736;DHT22;352;48.626;9.238;2023-01-09T03:49:16;9.30;99.90
736;DHT22;352;48.626;9.238;2023-01-09T03:51:43;9.30;99.90
736;DHT22;352;48.626;9.238;2023-01-09T03:54:11;9.30;99.90
736;DHT22;352;48.626;9.238;2023-01-09T03:56:38;9.20;99.90
736;DHT22;352;48.626;9.238;2023-01-09T03:59:05;9.20;99.90
736;DHT22;352;48.626;9.238;2023-01-09T04:01:32;9.10;99.90
736;DHT22;352;48.626;9.238;2023-01-09T04:03:58;9.20;99.90
736;DHT22;352;48.626;9.238;2023-01-09T04:06:25;9.10;99.90
736;DHT22;352;48.626;9.238;2023-01-09T04:08:52;9.20;99.90
736;DHT22;352;48.626;9.238;2023-01-09T04:11:20;9.20;99.90
736;DHT22;352;48.626;9.238;2023-01-09T04:13:46;9.20;99.90
736;DHT22;352;48.626;9.238;2023-01-09T04:16:13;9.20;99.90
736;DHT22;352;48.626;9.238;2023-01-09T04:18:40;9.20;99.90
736;DHT22;352;48.626;9.238;2023-01-09T04:21:07;9.20;99.90
736;DHT22;352;48.626;9.238;2023-01-09T04:23:33;9.20;99.90
736;DHT22;352;48.626;9.238;2023-01-09T04:26:00;9.20;99.90
736;DHT22;352;48.626;9.238;2023-01-09T04:28:28;9.20;99.90
736;DHT22;352;48.626;9.238;2023-01-09T04:30:55;9.20;99.90
736;DHT22;352;48.626;9.238;2023-01-09T04:33:22;9.20;99.90
736;DHT22;352;48.626;9.238;2023-01-09T04:35:49;9.20;99.90
736;DHT22;352;48.626;9.238;2023-01-09T04:38:15;9.20;99.90
736;DHT22;352;48.626;9.238;2023-01-09T04:40:42;9.20;99.90
736;DHT22;352;48.626;9.238;2023-01-09T04:43:09;9.10;99.90
736;DHT22;352;48.626;9.238;2023-01-09T04:45:37;9.20;99.90
736;DHT22;352;48.626;9.238;2023-01-09T04:48:04;9.10;99.90
736;DHT22;352;48.626;9.238;2023-01-09T04:50:31;9.10;99.90
736;DHT22;352;48.626;9.238;2023-01-09T04:52:57;9.00;99.90
736;DHT22;352;48.626;9.238;2023-01-09T04:55:24;8.90;99.90
736;DHT22;352;48.626;9.238;2023-01-09T04:57:51;8.90;99.90
736;DHT22;352;48.626;9.238;2023-01-09T05:00:18;8.80;99.90
736;DHT22;352;48.626;9.238;2023-01-09T05:02:46;8.70;99.90
736;DHT22;352;48.626;9.238;2023-01-09T05:05:13;8.70;99.90
736;DHT22;352;48.626;9.238;2023-01-09T05:07:39;8.60;99.90
736;DHT22;352;48.626;9.238;2023-01-09T05:10:07;8.50;99.90
736;DHT22;352;48.626;9.238;2023-01-09T05:12:34;8.40;99.90
736;DHT22;352;48.626;9.238;2023-01-09T05:15:01;8.30;99.90
736;DHT22;352;48.626;9.238;2023-01-09T05:17:28;8.30;99.90
736;DHT22;352;48.626;9.238;2023-01-09T05:19:56;8.20;99.90
736;DHT22;352;48.626;9.238;2023-01-09T05:22:24;8.10;99.90
736;DHT22;352;48.626;9.238;2023-01-09T05:24:51;8.10;99.90
736;DHT22;352;48.626;9.238;2023-01-09T05:27:18;7.90;99.90
736;DHT22;352;48.626;9.238;2023-01-09T05:29:44;7.80;99.90
736;DHT22;352;48.626;9.238;2023-01-09T05:32:11;7.70;99.90
736;DHT22;352;48.626;9.238;2023-01-09T05:34:38;7.70;99.90
736;DHT22;352;48.626;9.238;2023-01-09T05:37:06;7.60;99.90
736;DHT22;352;48.626;9.238;2023-01-09T05:39:32;7.60;99.90
736;DHT22;352;48.626;9.238;2023-01-09T05:41:59;7.50;99.90
736;DHT22;352;48.626;9.238;2023-01-09T05:44:26;7.50;99.90
736;DHT22;352;48.626;9.238;2023-01-09T05:46:53;7.40;99.90
736;DHT22;352;48.626;9.238;2023-01-09T05:49:19;7.40;99.90
736;DHT22;352;48.626;9.238;2023-01-09T05:51:46;7.50;99.90
736;DHT22;352;48.626;9.238;2023-01-09T05:54:14;7.40;99.90
736;DHT22;352;48.626;9.238;2023-01-09T05:56:41;7.40;99.90
736;DHT22;352;48.626;9.238;2023-01-09T05:59:08;7.30;99.90
736;DHT22;352;48.626;9.238;2023-01-09T06:01:34;7.30;99.90
736;DHT22;352;48.626;9.238;2023-01-09T06:04:01;7.30;99.90
736;DHT22;352;48.626;9.238;2023-01-09T06:06:28;7.20;99.90
736;DHT22;352;48.626;9.238;2023-01-09T06:08:55;7.30;99.90
736;DHT22;352;48.626;9.238;2023-01-09T06:11:23;7.20;99.90
736;DHT22;352;48.626;9.238;2023-01-09T06:13:49;7.20;99.90
736;DHT22;352;48.626;9.238;2023-01-09T06:16:16;7.20;99.90
736;DHT22;352;48.626;9.238;2023-01-09T06:18:43;7.20;99.90
736;DHT22;352;48.626;9.238;2023-01-09T06:21:09;7.20;99.90
736;DHT22;352;48.626;9.238;2023-01-09T06:23:36;7.20;99.90
736;DHT22;352;48.626;9.238;2023-01-09T06:26:03;7.10;99.90
736;DHT22;352;48.626;9.238;2023-01-09T06:28:31;7.00;99.90
736;DHT22;352;48.626;9.238;2023-01-09T06:30:58;7.00;99.90
736;DHT22;352;48.626;9.238;2023-01-09T06:33:24;7.00;99.90
736;DHT22;352;48.626;9.238;2023-01-09T06:35:51;7.00;99.90
736;DHT22;352;48.626;9.238;2023-01-09T06:38:18;6.90;99.90
736;DHT22;352;48.626;9.238;2023-01-09T06:40:45;6.90;99.90
736;DHT22;352;48.626;9.238;2023-01-09T06:43:13;6.80;99.90
736;DHT22;352;48.626;9.238;2023-01-09T06:45:42;6.90;99.90
736;DHT22;352;48.626;9.238;2023-01-09T06:48:09;6.80;99.90
736;DHT22;352;48.626;9.238;2023-01-09T06:50:35;6.80;99.90
736;DHT22;352;48.626;9.238;2023-01-09T06:53:02;6.80;99.90
736;DHT22;352;48.626;9.238;2023-01-09T06:55:29;6.80;99.90
736;DHT22;352;48.626;9.238;2023-01-09T06:57:56;6.80;99.90
736;DHT22;352;48.626;9.238;2023-01-09T07:00:23;6.70;99.90
736;DHT22;352;48.626;9.238;2023-01-09T07:02:51;6.70;99.90
736;DHT22;352;48.626;9.238;2023-01-09T07:05:17;6.80;99.90
736;DHT22;352;48.626;9.238;2023-01-09T07:07:44;6.80;99.90
736;DHT22;352;48.626;9.238;2023-01-09T07:10:11;6.80;99.90
736;DHT22;352;48.626;9.238;2023-01-09T07:12:37;6.90;99.90
736;DHT22;352;48.626;9.238;2023-01-09T07:15:05;6.90;99.90
736;DHT22;352;48.626;9.238;2023-01-09T07:17:32;7.00;99.90
736;DHT22;352;48.626;9.238;2023-01-09T07:20:00;7.00;99.90
736;DHT22;352;48.626;9.238;2023-01-09T07:22:27;7.10;99.90
736;DHT22;352;48.626;9.238;2023-01-09T07:24:54;7.10;99.90
736;DHT22;352;48.626;9.238;2023-01-09T07:27:21;7.10;99.90
736;DHT22;352;48.626;9.238;2023-01-09T07:29:48;7.20;99.90
736;DHT22;352;48.626;9.238;2023-01-09T07:32:15;7.20;99.90
736;DHT22;352;48.626;9.238;2023-01-09T07:34:42;7.20;99.90
736;DHT22;352;48.626;9.238;2023-01-09T07:37:10;7.30;99.90
736;DHT22;352;48.626;9.238;2023-01-09T07:39:37;7.30;99.90
736;DHT22;352;48.626;9.238;2023-01-09T07:42:04;7.30;99.90
736;DHT22;352;48.626;9.238;2023-01-09T07:44:30;7.30;99.90
736;DHT22;352;48.626;9.238;2023-01-09T07:46:57;7.30;99.90
736;DHT22;352;48.626;9.238;2023-01-09T07:49:24;7.30;99.90
736;DHT22;352;48.626;9.238;2023-01-09T07:51:51;7.30;99.90
736;DHT22;352;48.626;9.238;2023-01-09T07:54:19;7.40;99.90
736;DHT22;352;48.626;9.238;2023-01-09T07:56:46;7.30;99.90
736;DHT22;352;48.626;9.238;2023-01-09T07:59:13;7.30;99.90
736;DHT22;352;48.626;9.238;2023-01-09T08:01:40;7.20;99.90
736;DHT22;352;48.626;9.238;2023-01-09T08:04:07;7.20;99.90
736;DHT22;352;48.626;9.238;2023-01-09T08:06:34;7.10;99.90
736;DHT22;352;48.626;9.238;2023-01-09T08:09:00;7.10;99.90
736;DHT22;352;48.626;9.238;2023-01-09T08:11:28;7.10;99.90
736;DHT22;352;48.626;9.238;2023-01-09T08:13:56;7.00;99.90
736;DHT22;352;48.626;9.238;2023-01-09T08:16:23;7.00;99.90
736;DHT22;352;48.626;9.238;2023-01-09T08:18:50;7.10;99.90
736;DHT22;352;48.626;9.238;2023-01-09T08:21:16;7.10;99.90
736;DHT22;352;48.626;9.238;2023-01-09T08:23:43;7.00;99.90
736;DHT22;352;48.626;9.238;2023-01-09T08:26:11;7.00;99.90
736;DHT22;352;48.626;9.238;2023-01-09T08:28:39;7.00;99.90
736;DHT22;352;48.626;9.238;2023-01-09T08:31:06;7.00;99.90
736;DHT22;352;48.626;9.238;2023-01-09T08:33:32;7.00;99.90
736;DHT22;352;48.626;9.238;2023-01-09T08:35:59;7.00;99.90
736;DHT22;352;48.626;9.238;2023-01-09T08:38:26;7.00;99.90
736;DHT22;352;48.626;9.238;2023-01-09T08:40:52;7.00;99.90
736;DHT22;352;48.626;9.238;2023-01-09T08:43:19;7.10;99.90
736;DHT22;352;48.626;9.238;2023-01-09T08:46:10;7.00;99.90
736;DHT22;352;48.626;9.238;2023-01-09T08:48:53;7.10;99.90
736;DHT22;352;48.626;9.238;2023-01-09T08:51:20;7.10;99.90
736;DHT22;352;48.626;9.238;2023-01-09T08:53:47;7.20;99.90
736;DHT22;352;48.626;9.238;2023-01-09T08:56:13;7.30;99.90
736;DHT22;352;48.626;9.238;2023-01-09T08:58:40;7.40;99.90
736;DHT22;352;48.626;9.238;2023-01-09T09:01:08;7.50;99.90
736;DHT22;352;48.626;9.238;2023-01-09T09:03:35;7.50;99.90
736;DHT22;352;48.626;9.238;2023-01-09T09:06:02;7.60;99.90
736;DHT22;352;48.626;9.238;2023-01-09T09:08:28;7.70;99.90
736;DHT22;352;48.626;9.238;2023-01-09T09:10:55;7.80;99.90
736;DHT22;352;48.626;9.238;2023-01-09T09:13:25;7.90;99.90
736;DHT22;352;48.626;9.238;2023-01-09T09:15:52;7.90;99.90
736;DHT22;352;48.626;9.238;2023-01-09T09:18:20;8.00;99.90
736;DHT22;352;48.626;9.238;2023-01-09T09:20:47;8.20;99.90
736;DHT22;352;48.626;9.238;2023-01-09T09:23:13;8.40;99.90
736;DHT22;352;48.626;9.238;2023-01-09T09:25:40;8.60;99.90
736;DHT22;352;48.626;9.238;2023-01-09T09:28:08;8.80;99.90
736;DHT22;352;48.626;9.238;2023-01-09T09:30:37;9.00;99.90
736;DHT22;352;48.626;9.238;2023-01-09T09:33:04;9.20;99.90
736;DHT22;352;48.626;9.238;2023-01-09T09:35:32;9.50;99.90
736;DHT22;352;48.626;9.238;2023-01-09T09:38:02;9.60;99.90
736;DHT22;352;48.626;9.238;2023-01-09T09:40:45;9.80;99.90
736;DHT22;352;48.626;9.238;2023-01-09T09:43:27;9.90;99.90
736;DHT22;352;48.626;9.238;2023-01-09T09:46:20;9.90;99.90
736;DHT22;352;48.626;9.238;2023-01-09T09:48:52;9.70;99.90
736;DHT22;352;48.626;9.238;2023-01-09T09:51:55;9.80;99.90
736;DHT22;352;48.626;9.238;2023-01-09T09:54:28;9.90;99.90
736;DHT22;352;48.626;9.238;2023-01-09T09:56:57;10.00;99.90
736;DHT22;352;48.626;9.238;2023-01-09T09:59:26;9.90;99.90
736;DHT22;352;48.626;9.238;2023-01-09T10:01:56;9.90;99.90
736;DHT22;352;48.626;9.238;2023-01-09T10:04:26;10.10;99.90
736;DHT22;352;48.626;9.238;2023-01-09T10:06:58;10.50;99.90
736;DHT22;352;48.626;9.238;2023-01-09T10:09:35;10.80;99.90
736;DHT22;352;48.626;9.238;2023-01-09T10:12:16;11.20;99.90
736;DHT22;352;48.626;9.238;2023-01-09T10:14:47;11.30;99.90
736;DHT22;352;48.626;9.238;2023-01-09T10:17:28;11.30;99.90
736;DHT22;352;48.626;9.238;2023-01-09T10:20:18;11.30;99.90
736;DHT22;352;48.626;9.238;2023-01-09T10:22:59;11.20;99.90
736;DHT22;352;48.626;9.238;2023-01-09T10:25:34;11.00;99.90
736;DHT22;352;48.626;9.238;2023-01-09T10:28:18;11.10;99.90
736;DHT22;352;48.626;9.238;2023-01-09T10:30:47;11.20;99.90
736;DHT22;352;48.626;9.238;2023-01-09T10:33:29;11.50;99.90
736;DHT22;352;48.626;9.238;2023-01-09T10:36:20;11.70;99.90
736;DHT22;352;48.626;9.238;2023-01-09T10:38:55;11.90;99.90
736;DHT22;352;48.626;9.238;2023-01-09T10:41:26;12.10;99.90
736;DHT22;352;48.626;9.238;2023-01-09T10:43:57;12.10;99.90
736;DHT22;352;48.626;9.238;2023-01-09T10:46:31;11.90;99.90
736;DHT22;352;48.626;9.238;2023-01-09T10:49:01;11.90;99.90
736;DHT22;352;48.626;9.238;2023-01-09T10:51:33;11.60;99.90
736;DHT22;352;48.626;9.238;2023-01-09T10:54:03;11.50;99.90
736;DHT22;352;48.626;9.238;2023-01-09T10:56:39;11.40;99.90
736;DHT22;352;48.626;9.238;2023-01-09T10:59:07;11.30;99.90
736;DHT22;352;48.626;9.238;2023-01-09T11:01:37;11.30;99.90
736;DHT22;352;48.626;9.238;2023-01-09T11:04:16;11.20;99.90
736;DHT22;352;48.626;9.238;2023-01-09T11:06:47;11.10;99.90
736;DHT22;352;48.626;9.238;2023-01-09T11:09:16;10.90;99.90
736;DHT22;352;48.626;9.238;2023-01-09T11:11:43;10.90;99.90
736;DHT22;352;48.626;9.238;2023-01-09T11:14:13;10.90;99.90
736;DHT22;352;48.626;9.238;2023-01-09T11:16:50;10.80;99.90
736;DHT22;352;48.626;9.238;2023-01-09T11:19:18;10.80;99.90
736;DHT22;352;48.626;9.238;2023-01-09T11:21:45;10.80;99.90
736;DHT22;352;48.626;9.238;2023-01-09T11:24:31;10.70;99.90
736;DHT22;352;48.626;9.238;2023-01-09T11:27:21;10.60;99.90
736;DHT22;352;48.626;9.238;2023-01-09T11:30:21;10.60;99.90
736;DHT22;352;48.626;9.238;2023-01-09T11:32:52;10.60;99.90
736;DHT22;352;48.626;9.238;2023-01-09T11:35:23;10.60;99.90
736;DHT22;352;48.626;9.238;2023-01-09T11:38:02;10.70;99.90
736;DHT22;352;48.626;9.238;2023-01-09T11:40:37;10.80;99.90
736;DHT22;352;48.626;9.238;2023-01-09T11:43:13;11.00;99.90
736;DHT22;352;48.626;9.238;2023-01-09T11:45:43;11.10;99.90
736;DHT22;352;48.626;9.238;2023-01-09T11:48:25;11.20;99.90
736;DHT22;352;48.626;9.238;2023-01-09T11:50:55;11.10;99.90
736;DHT22;352;48.626;9.238;2023-01-09T11:53:22;11.10;99.90
736;DHT22;352;48.626;9.238;2023-01-09T11:55:56;11.10;99.90
736;DHT22;352;48.626;9.238;2023-01-09T11:58:23;11.20;99.90
736;DHT22;352;48.626;9.238;2023-01-09T12:00:58;11.20;99.90
736;DHT22;352;48.626;9.238;2023-01-09T12:06:26;11.10;99.90
736;DHT22;352;48.626;9.238;2023-01-09T12:08:56;11.00;99.90
736;DHT22;352;48.626;9.238;2023-01-09T12:11:36;11.10;99.90
736;DHT22;352;48.626;9.238;2023-01-09T12:14:20;11.10;99.90
736;DHT22;352;48.626;9.238;2023-01-09T12:17:02;11.10;99.90
736;DHT22;352;48.626;9.238;2023-01-09T12:19:57;11.00;99.90
736;DHT22;352;48.626;9.238;2023-01-09T12:22:32;10.90;99.90
736;DHT22;352;48.626;9.238;2023-01-09T12:25:15;10.80;99.90
736;DHT22;352;48.626;9.238;2023-01-09T12:27:59;10.70;99.90
736;DHT22;352;48.626;9.238;2023-01-09T12:30:42;10.70;99.90
736;DHT22;352;48.626;9.238;2023-01-09T12:33:23;10.70;99.90
736;DHT22;352;48.626;9.238;2023-01-09T12:36:11;10.80;99.90
736;DHT22;352;48.626;9.238;2023-01-09T12:38:44;10.80;99.90
736;DHT22;352;48.626;9.238;2023-01-09T12:44:48;10.90;99.90
736;DHT22;352;48.626;9.238;2023-01-09T12:50:47;11.10;99.90
736;DHT22;352;48.626;9.238;2023-01-09T12:53:20;11.10;99.90
736;DHT22;352;48.626;9.238;2023-01-09T12:55:54;11.10;99.90
736;DHT22;352;48.626;9.238;2023-01-09T12:58:30;11.10;99.90
736;DHT22;352;48.626;9.238;2023-01-09T13:00:59;11.10;99.90
736;DHT22;352;48.626;9.238;2023-01-09T13:03:33;11.00;99.90
736;DHT22;352;48.626;9.238;2023-01-09T13:06:06;10.90;99.90
736;DHT22;352;48.626;9.238;2023-01-09T13:08:37;11.10;99.90
736;DHT22;352;48.626;9.238;2023-01-09T13:11:09;11.20;99.90
736;DHT22;352;48.626;9.238;2023-01-09T13:13:43;11.40;99.90
736;DHT22;352;48.626;9.238;2023-01-09T13:16:16;11.60;99.90
736;DHT22;352;48.626;9.238;2023-01-09T13:18:47;11.50;99.90
736;DHT22;352;48.626;9.238;2023-01-09T13:21:15;11.40;99.90
736;DHT22;352;48.626;9.238;2023-01-09T13:23:47;11.40;99.90
736;DHT22;352;48.626;9.238;2023-01-09T13:26:17;11.30;99.90
736;DHT22;352;48.626;9.238;2023-01-09T13:28:47;11.20;99.90
736;DHT22;352;48.626;9.238;2023-01-09T13:31:35;11.10;99.90
736;DHT22;352;48.626;9.238;2023-01-09T13:34:05;11.00;99.90
736;DHT22;352;48.626;9.238;2023-01-09T13:36:37;10.80;99.90
736;DHT22;352;48.626;9.238;2023-01-09T13:39:05;10.80;99.90
736;DHT22;352;48.626;9.238;2023-01-09T13:41:32;10.80;99.90
736;DHT22;352;48.626;9.238;2023-01-09T13:44:22;10.80;99.90
736;DHT22;352;48.626;9.238;2023-01-09T13:46:53;10.70;99.90
736;DHT22;352;48.626;9.238;2023-01-09T13:49:31;10.60;99.90
736;DHT22;352;48.626;9.238;2023-01-09T13:52:00;10.60;99.90
736;DHT22;352;48.626;9.238;2023-01-09T13:54:59;10.60;99.90
736;DHT22;352;48.626;9.238;2023-01-09T13:57:27;10.70;99.90
736;DHT22;352;48.626;9.238;2023-01-09T13:59:58;10.60;99.90
736;DHT22;352;48.626;9.238;2023-01-09T14:02:56;10.50;99.90
736;DHT22;352;48.626;9.238;2023-01-09T14:06:10;10.50;99.90
736;DHT22;352;48.626;9.238;2023-01-09T14:08:38;10.50;99.90
736;DHT22;352;48.626;9.238;2023-01-09T14:11:06;10.60;99.90
736;DHT22;352;48.626;9.238;2023-01-09T14:13:38;10.50;99.90
736;DHT22;352;48.626;9.238;2023-01-09T14:16:06;10.50;99.90
736;DHT22;352;48.626;9.238;2023-01-09T14:18:37;10.40;99.90
736;DHT22;352;48.626;9.238;2023-01-09T14:21:06;10.50;99.90
736;DHT22;352;48.626;9.238;2023-01-09T14:23:36;10.40;99.90
736;DHT22;352;48.626;9.238;2023-01-09T14:26:05;10.30;99.90
736;DHT22;352;48.626;9.238;2023-01-09T14:28:32;10.30;99.90
736;DHT22;352;48.626;9.238;2023-01-09T14:31:08;10.20;99.90
736;DHT22;352;48.626;9.238;2023-01-09T14:33:36;10.20;99.90
736;DHT22;352;48.626;9.238;2023-01-09T14:36:13;10.20;99.90
736;DHT22;352;48.626;9.238;2023-01-09T14:38:42;10.10;99.90
736;DHT22;352;48.626;9.238;2023-01-09T14:41:19;10.00;99.90
736;DHT22;352;48.626;9.238;2023-01-09T14:44:18;9.90;99.90
736;DHT22;352;48.626;9.238;2023-01-09T14:46:49;9.80;99.90
736;DHT22;352;48.626;9.238;2023-01-09T14:49:27;9.70;99.90
736;DHT22;352;48.626;9.238;2023-01-09T14:51:57;9.60;99.90
736;DHT22;352;48.626;9.238;2023-01-09T14:54:27;9.50;99.90
736;DHT22;352;48.626;9.238;2023-01-09T14:56:55;9.40;99.90
736;DHT22;352;48.626;9.238;2023-01-09T14:59:22;9.30;99.90
736;DHT22;352;48.626;9.238;2023-01-09T15:01:50;9.20;99.90
736;DHT22;352;48.626;9.238;2023-01-09T15:04:26;9.20;99.90
736;DHT22;352;48.626;9.238;2023-01-09T15:06:56;9.10;99.90
736;DHT22;352;48.626;9.238;2023-01-09T15:09:25;9.10;99.90
736;DHT22;352;48.626;9.238;2023-01-09T15:11:55;9.20;99.90
736;DHT22;352;48.626;9.238;2023-01-09T15:14:30;9.20;99.90
736;DHT22;352;48.626;9.238;2023-01-09T15:16:59;9.10;99.90
736;DHT22;352;48.626;9.238;2023-01-09T15:19:29;9.10;99.90
736;DHT22;352;48.626;9.238;2023-01-09T15:21:59;9.10;99.90
736;DHT22;352;48.626;9.238;2023-01-09T15:24:28;9.10;99.90
736;DHT22;352;48.626;9.238;2023-01-09T15:26:56;9.00;99.90
736;DHT22;352;48.626;9.238;2023-01-09T15:29:24;9.00;99.90
736;DHT22;352;48.626;9.238;2023-01-09T15:31:53;8.90;99.90
736;DHT22;352;48.626;9.238;2023-01-09T15:34:23;8.80;99.90
736;DHT22;352;48.626;9.238;2023-01-09T15:36:52;8.70;99.90
736;DHT22;352;48.626;9.238;2023-01-09T15:39:21;8.50;99.90
736;DHT22;352;48.626;9.238;2023-01-09T15:41:49;8.50;99.90
736;DHT22;352;48.626;9.238;2023-01-09T15:44:33;8.40;99.90
736;DHT22;352;48.626;9.238;2023-01-09T15:47:05;8.30;99.90
736;DHT22;352;48.626;9.238;2023-01-09T15:49:34;8.30;99.90
736;DHT22;352;48.626;9.238;2023-01-09T15:52:03;8.20;99.90
736;DHT22;352;48.626;9.238;2023-01-09T15:54:32;8.10;99.90
736;DHT22;352;48.626;9.238;2023-01-09T16:00:28;8.00;99.90
736;DHT22;352;48.626;9.238;2023-01-09T16:02:56;7.90;99.90
736;DHT22;352;48.626;9.238;2023-01-09T16:05:38;7.80;99.90
736;DHT22;352;48.626;9.238;2023-01-09T16:08:17;7.80;99.90
736;DHT22;352;48.626;9.238;2023-01-09T16:10:48;7.70;99.90
736;DHT22;352;48.626;9.238;2023-01-09T16:13:15;7.70;99.90
736;DHT22;352;48.626;9.238;2023-01-09T16:15:44;7.60;99.90
736;DHT22;352;48.626;9.238;2023-01-09T16:18:26;7.60;99.90
736;DHT22;352;48.626;9.238;2023-01-09T16:21:04;7.50;99.90
736;DHT22;352;48.626;9.238;2023-01-09T16:23:34;7.50;99.90
736;DHT22;352;48.626;9.238;2023-01-09T16:26:03;7.50;99.90
736;DHT22;352;48.626;9.238;2023-01-09T16:28:29;7.50;99.90
736;DHT22;352;48.626;9.238;2023-01-09T16:30:58;7.40;99.90
736;DHT22;352;48.626;9.238;2023-01-09T16:33:27;7.40;99.90
736;DHT22;352;48.626;9.238;2023-01-09T16:35:54;7.50;99.90
736;DHT22;352;48.626;9.238;2023-01-09T16:38:22;7.60;99.90
736;DHT22;352;48.626;9.238;2023-01-09T16:41:03;7.70;99.90
736;DHT22;352;48.626;9.238;2023-01-09T16:43:48;7.70;99.90
736;DHT22;352;48.626;9.238;2023-01-09T16:46:16;7.80;99.90
736;DHT22;352;48.626;9.238;2023-01-09T16:48:44;7.80;99.90
736;DHT22;352;48.626;9.238;2023-01-09T16:51:14;7.80;99.90
736;DHT22;352;48.626;9.238;2023-01-09T16:53:41;7.80;99.90
736;DHT22;352;48.626;9.238;2023-01-09T16:56:13;7.80;99.90
736;DHT22;352;48.626;9.238;2023-01-09T16:58:42;7.80;99.90
736;DHT22;352;48.626;9.238;2023-01-09T17:01:08;7.90;99.90
736;DHT22;352;48.626;9.238;2023-01-09T17:03:38;7.80;99.90
736;DHT22;352;48.626;9.238;2023-01-09T17:06:05;7.80;99.90
736;DHT22;352;48.626;9.238;2023-01-09T17:08:34;7.70;99.90
736;DHT22;352;48.626;9.238;2023-01-09T17:11:01;7.70;99.90
736;DHT22;352;48.626;9.238;2023-01-09T17:13:30;7.70;99.90
736;DHT22;352;48.626;9.238;2023-01-09T17:15:58;7.60;99.90
736;DHT22;352;48.626;9.238;2023-01-09T17:18:26;7.50;99.90
736;DHT22;352;48.626;9.238;2023-01-09T17:20:54;7.40;99.90
736;DHT22;352;48.626;9.238;2023-01-09T17:23:22;7.40;99.90
736;DHT22;352;48.626;9.238;2023-01-09T17:25:52;7.40;99.90
736;DHT22;352;48.626;9.238;2023-01-09T17:28:41;7.30;99.90
736;DHT22;352;48.626;9.238;2023-01-09T17:31:10;7.40;99.90